Francisco de Sa Carneiro Airport Porto PT
ICAO: LPPR
IATA: OPO
Category: Large
Scheduled Services: Yes

Elevation: 228 ft
TransAlt. 4000 ft.

Airport Communications:
APP:121.1
ATIS:124.3
TWR:118

LPPR Zoom In..

Runways:

(A) RW 17 length 11417 ft width 148 ft
ILS 109.90 / hdg 173

(B) RW 35 length 11417 ft width 148 ft
---- / hdg 353

Location; LPPR
Day. 21 / Time. 23.30 Zulu
* QNH: 1011
* Temperature: 07° c. 44.6°f.
* Wind from: 110° Speed 04 kn.
Dewpoint: 04° c.
Visibility: 10 km or more,
No clouds below 1,500 m.
No cumulonimbus, and no significant weather
fenomena in the aerodrome or its vicinity.

LPPR 212330Z 11004KT 060V130 CAVOK 07/04 Q1011


Wind From 110°
Speed 04 kn.

YouTube Music Video
 
jpsmedia.com for Web Design  worldairports.se 2018   terms of use